Time;durP1;ratioP1;P1;durP2;ratioP2;P2;SDS_P1;SDS_P2;PMS_P1;PMS_P2;Temp;Humidity;BMP_temperature;BMP_pressure;BME280_temperature;BME280_humidity;BME280_pressure;Samples;Min_cycle;Max_cycle;Signal;HPM_P1;HPM_P2
2021/06/12 00:01:26;;;;;;;4.95;2.00;;;;;;;29.33;59.85;100718.44;5091483;27;70661;-33
2021/06/12 00:03:58;;;;;;;6.22;2.67;;;;;;;29.36;59.82;100726.16;5082798;27;66101;-32
2021/06/12 00:06:30;;;;;;;;;;;;;;;29.25;61.15;100732.19;5094533;27;70113;-33
2021/06/12 00:09:01;;;;;;;5.38;2.70;;;;;;;29.38;59.54;100736.72;5083651;27;65347;-34
2021/06/12 00:11:33;;;;;;;3.58;2.00;;;;;;;29.42;60.12;100745.22;5060529;27;70060;-36
2021/06/12 00:14:07;;;;;;;3.45;2.25;;;;;;;29.47;59.99;100746.25;5077592;27;66631;-36
2021/06/12 00:16:39;;;;;;;8.02;2.60;;;;;;;29.51;60.19;100762.88;5093643;27;70379;-34
2021/06/12 00:19:12;;;;;;;4.90;2.90;;;;;;;29.50;59.79;100750.41;5090517;27;65507;-33
2021/06/12 00:21:44;;;;;;;9.73;2.55;;;;;;;29.56;60.06;100757.63;5053270;27;70297;-34
2021/06/12 00:24:16;;;;;;;4.20;2.85;;;;;;;29.54;60.48;100762.44;5082342;27;65394;-36
2021/06/12 00:26:57;;;;;;;3.08;2.65;;;;;;;29.59;60.61;100765.34;5079862;27;70952;-32
2021/06/12 00:30:13;;;;;;;8.68;2.75;;;;;;;29.58;60.51;100759.09;5086838;27;65973;-29
2021/06/12 00:32:44;;;;;;;8.73;2.85;;;;;;;29.65;60.56;100758.28;5091951;27;69064;-32
2021/06/12 00:35:16;;;;;;;6.40;2.60;;;;;;;29.67;60.17;100761.59;5085100;27;66038;-30
2021/06/12 00:37:47;;;;;;;7.90;2.97;;;;;;;29.70;61.00;100771.97;5081008;27;70268;-30
2021/06/12 00:40:20;;;;;;;5.82;3.45;;;;;;;29.74;61.91;100778.63;5080958;27;66203;-30
2021/06/12 00:42:52;;;;;;;16.45;3.90;;;;;;;29.77;61.99;100778.19;5088035;27;69739;-29
2021/06/12 00:45:27;;;;;;;12.90;4.13;;;;;;;29.78;62.63;100783.38;5084843;27;65697;-30
2021/06/12 00:48:01;;;;;;;8.30;4.22;;;;;;;29.82;63.22;100790.00;5081883;27;68497;-30
2021/06/12 00:50:34;;;;;;;12.30;4.78;;;;;;;29.67;63.10;100767.84;5081528;27;65875;-30
2021/06/12 00:53:08;;;;;;;9.05;4.57;;;;;;;29.87;64.02;100793.97;5088404;27;69860;-31
2021/06/12 00:55:40;;;;;;;21.08;5.10;;;;;;;29.87;63.87;100799.38;5081802;27;66207;-31
2021/06/12 00:58:15;;;;;;;14.75;4.80;;;;;;;29.64;64.05;100757.44;5083810;27;70190;-31
2021/06/12 01:00:46;;;;;;;6.55;4.13;;;;;;;29.91;63.96;100795.16;5080553;27;65246;-30
2021/06/12 01:03:18;;;;;;;7.70;4.87;;;;;;;29.92;63.92;100794.97;5080471;27;69982;-30
2021/06/12 01:05:49;;;;;;;10.02;4.60;;;;;;;29.92;63.83;100792.25;5086505;27;65305;-31
2021/06/12 01:08:20;;;;;;;13.53;3.93;;;;;;;29.94;64.00;100789.31;5086547;27;69743;-31
2021/06/12 01:10:52;;;;;;;10.37;4.07;;;;;;;29.96;64.76;100800.78;5087477;27;65593;-30
2021/06/12 01:13:46;;;;;;;11.75;3.78;;;;;;;29.92;65.89;100803.09;5091274;27;69155;-31
2021/06/12 01:16:32;;;;;;;8.90;4.07;;;;;;;29.98;65.00;100801.38;5083717;27;66522;-30
2021/06/12 01:19:40;;;;;;;7.50;4.97;;;;;;;29.64;65.27;100757.44;5083291;27;69023;-31
2021/06/12 01:22:46;;;;;;;6.65;4.13;;;;;;;29.96;65.73;100806.19;5088788;27;66000;-31
2021/06/12 01:25:45;;;;;;;8.48;4.07;;;;;;;29.99;65.83;100808.44;5064142;27;69599;-35
2021/06/12 01:28:39;;;;;;;15.68;5.18;;;;;;;30.02;65.84;100816.94;5081317;27;66611;-30
2021/06/12 01:31:13;;;;;;;11.52;4.95;;;;;;;30.10;65.57;100815.06;5082851;27;70170;-33
2021/06/12 01:33:48;;;;;;;10.98;5.38;;;;;;;30.09;65.31;100807.97;5080769;27;65724;-35
2021/06/12 01:36:19;;;;;;;9.18;5.25;;;;;;;30.17;65.71;100807.72;5083750;27;69631;-31
2021/06/12 01:39:00;;;;;;;9.57;5.07;;;;;;;30.15;65.58;100796.28;5084691;27;66017;-32
2021/06/12 01:41:51;;;;;;;17.17;5.57;;;;;;;30.23;64.94;100809.59;5080858;27;69683;-33
2021/06/12 01:44:24;;;;;;;20.08;9.38;;;;;;;30.26;65.02;100809.16;5082014;27;66006;-33
2021/06/12 01:46:56;;;;;;;18.98;11.52;;;;;;;30.22;65.29;100787.09;5079178;27;69905;-31
2021/06/12 01:49:34;;;;;;;23.83;10.52;;;;;;;30.28;65.26;100802.50;5081493;27;64915;-37
2021/06/12 01:52:06;;;;;;;14.25;8.70;;;;;;;30.35;65.12;100797.03;5074327;27;70071;-33
2021/06/12 01:54:38;;;;;;;18.02;8.68;;;;;;;30.34;64.57;100797.22;5083432;27;65849;-33
2021/06/12 01:57:10;;;;;;;11.48;7.45;;;;;;;30.39;64.94;100798.22;5084193;27;69338;-32
2021/06/12 01:59:42;;;;;;;23.35;7.90;;;;;;;30.38;65.37;100785.75;5079365;27;65134;-33
2021/06/12 02:02:14;;;;;;;31.55;8.63;;;;;;;30.44;65.21;100794.88;5077379;27;71350;-32
2021/06/12 02:04:55;;;;;;;29.10;7.38;;;;;;;30.25;66.28;100759.59;5083175;27;65382;-32
2021/06/12 02:07:42;;;;;;;17.80;6.77;;;;;;;30.52;65.58;100797.31;5082887;27;70137;-32
2021/06/12 02:10:31;;;;;;;7.82;6.22;;;;;;;30.57;65.51;100783.13;5078180;27;65394;-32
2021/06/12 02:13:03;;;;;;;8.52;5.50;;;;;;;30.58;64.68;100777.47;5086982;27;70060;-32
2021/06/12 02:15:36;;;;;;;9.77;5.15;;;;;;;30.61;64.65;100792.44;5090083;27;65622;-33
2021/06/12 02:18:11;;;;;;;6.93;4.55;;;;;;;30.64;64.07;100784.72;5075142;27;69254;-37
2021/06/12 02:20:43;;;;;;;8.30;4.63;;;;;;;30.47;64.42;100756.53;5081322;27;65971;-31
2021/06/12 02:23:15;;;;;;;7.95;4.18;;;;;;;30.69;63.89;100778.63;5085667;27;69173;-34
2021/06/12 02:25:52;;;;;;;6.03;3.95;;;;;;;30.71;63.38;100771.94;5083415;27;65341;-31
2021/06/12 02:28:28;;;;;;;8.68;3.70;;;;;;;30.75;63.34;100779.63;5092392;27;69786;-34
2021/06/12 02:31:17;;;;;;;6.88;3.60;;;;;;;30.49;64.09;100732.78;5089452;27;65222;-33
2021/06/12 02:33:49;;;;;;;7.68;4.30;;;;;;;30.79;63.94;100753.78;5088252;27;69286;-34
2021/06/12 02:36:20;;;;;;;46.17;9.63;;;;;;;30.82;63.81;100756.06;5100710;27;64845;-32
2021/06/12 02:38:52;;;;;;;61.73;11.53;;;;;;;30.85;63.97;100752.91;5092310;27;69657;-31
2021/06/12 02:41:23;;;;;;;58.55;13.45;;;;;;;30.92;64.30;100753.66;5081537;27;65911;-33
2021/06/12 02:44:24;;;;;;;33.10;8.85;;;;;;;30.91;64.43;100755.53;5081059;27;68841;-32
2021/06/12 02:47:14;;;;;;;19.98;5.55;;;;;;;31.00;63.58;100760.69;5077264;27;65446;-35
2021/06/12 02:49:48;;;;;;;22.58;5.85;;;;;;;31.03;63.62;100755.63;5091631;27;69942;-33
2021/06/12 02:52:26;;;;;;;17.35;5.63;;;;;;;31.10;63.97;100753.69;5084452;27;65293;-34
2021/06/12 02:55:05;;;;;;;15.07;5.50;;;;;;;30.73;62.85;100677.78;5083688;27;70103;-35
2021/06/12 02:57:39;;;;;;;37.40;7.20;;;;;;;31.16;63.25;100739.22;5084268;27;65363;-37
2021/06/12 03:00:12;;;;;;;14.15;5.65;;;;;;;31.24;62.76;100751.66;5082328;27;71079;-35
2021/06/12 03:02:44;;;;;;;13.43;4.57;;;;;;;31.29;62.64;100748.28;5089978;27;65464;-40
2021/06/12 03:05:47;;;;;;;;;;;;;;;;;;;;;
2021/06/12 03:08:49;;;;;;;7.07;3.42;;;;;;;31.29;62.70;100748.28;5081045;27;66686;-34
2021/06/12 03:11:23;;;;;;;8.65;3.20;;;;;;;31.09;62.34;100719.53;5086794;27;69000;-34
2021/06/12 03:13:58;;;;;;;9.98;4.00;;;;;;;31.30;62.13;100752.63;5081277;27;66695;-34
2021/06/12 03:16:31;;;;;;;8.35;3.25;;;;;;;31.09;62.23;100692.44;5085617;27;70164;-33
2021/06/12 03:19:03;;;;;;;8.93;3.40;;;;;;;31.32;62.22;100737.00;5087483;27;66167;-35
2021/06/12 03:21:36;;;;;;;14.38;2.85;;;;;;;31.32;61.43;100731.56;5081522;27;69824;-34
2021/06/12 03:24:08;;;;;;;13.73;2.90;;;;;;;31.34;61.39;100737.56;5085812;27;66291;-33
2021/06/12 03:26:53;;;;;;;17.33;2.80;;;;;;;31.35;61.77;100731.13;5080104;27;70012;-33
2021/06/12 03:29:25;;;;;;;4.82;2.50;;;;;;;31.37;61.55;100729.88;5086727;27;65049;-34
2021/06/12 03:31:58;;;;;;;5.90;2.70;;;;;;;31.15;61.62;100688.81;5080453;27;69836;-32
2021/06/12 03:34:33;;;;;;;3.38;2.85;;;;;;;31.38;61.57;100714.41;5089580;27;66092;-34
2021/06/12 03:37:07;;;;;;;3.95;2.75;;;;;;;31.16;61.45;100671.50;5089896;27;70042;-33
2021/06/12 03:39:40;;;;;;;5.53;2.90;;;;;;;31.42;61.33;100710.19;5083508;27;66100;-33
2021/06/12 03:42:12;;;;;;;7.70;3.75;;;;;;;31.42;60.97;100714.78;5085887;27;69131;-32
2021/06/12 03:44:58;;;;;;;15.00;5.03;;;;;;;31.38;60.78;100709.00;5085145;27;66096;-33
2021/06/12 03:50:58;;;;;;;13.23;5.20;;;;;;;31.44;61.60;100705.38;5071527;27;66466;-32
2021/06/12 03:53:30;;;;;;;8.85;4.70;;;;;;;31.30;61.96;100663.19;5079903;27;70605;-33
2021/06/12 03:56:03;;;;;;;8.73;3.83;;;;;;;31.50;62.15;100701.75;5089684;27;65472;-33
2021/06/12 03:58:35;;;;;;;14.48;4.25;;;;;;;31.53;62.32;100701.28;5078425;27;69946;-32
2021/06/12 04:01:07;;;;;;;7.90;3.55;;;;;;;31.51;61.08;100707.97;5091411;27;65838;-32
2021/06/12 04:03:41;;;;;;;5.35;3.28;;;;;;;31.36;58.81;100695.66;5087042;27;69231;-34
2021/06/12 04:06:14;;;;;;;8.75;3.28;;;;;;;31.35;57.05;100725.69;5080869;27;66172;-33
2021/06/12 04:08:49;;;;;;;7.28;3.35;;;;;;;30.95;56.17;100671.94;5090305;27;69772;-32
2021/06/12 04:11:21;;;;;;;7.32;3.05;;;;;;;31.09;56.09;100713.25;5084137;27;66128;-32
2021/06/12 04:13:53;;;;;;;10.60;3.05;;;;;;;31.04;55.00;100713.13;5084985;27;70589;-31
2021/06/12 04:16:56;;;;;;;4.38;3.00;;;;;;;30.67;53.12;100665.16;5082609;27;66057;-31
2021/06/12 04:20:09;;;;;;;3.80;2.10;;;;;;;30.88;52.65;100693.69;5083119;27;69436;-31
2021/06/12 04:23:20;;;;;;;4.85;2.53;;;;;;;30.76;51.24;100691.91;5081277;27;66216;-33
2021/06/12 04:26:54;;;;;;;7.15;3.30;;;;;;;30.68;50.88;100687.66;5090211;27;69703;-33
2021/06/12 04:30:15;;;;;;;6.65;2.40;;;;;;;30.54;50.69;100678.00;5077232;27;66766;-33
2021/06/12 04:33:33;;;;;;;7.35;2.05;;;;;;;30.49;50.22;100662.41;5070555;27;69039;-32
2021/06/12 04:36:49;;;;;;;13.38;2.42;;;;;;;30.42;49.65;100656.22;5082138;27;64852;-33
2021/06/12 04:39:41;;;;;;;12.80;2.10;;;;;;;30.35;49.00;100650.06;5079854;27;69113;-34
2021/06/12 04:42:13;;;;;;;6.07;2.28;;;;;;;30.33;48.74;100644.84;5079553;27;66250;-33
2021/06/12 04:44:55;;;;;;;11.25;1.95;;;;;;;30.26;48.30;100631.41;5081685;27;69979;-32
2021/06/12 04:47:38;;;;;;;12.52;2.20;;;;;;;30.24;48.39;100632.66;5087036;27;65940;-33
2021/06/12 04:50:14;;;;;;;13.23;2.20;;;;;;;30.21;48.14;100628.50;5090114;27;69918;-33
2021/06/12 04:53:21;;;;;;;11.70;2.15;;;;;;;30.16;47.25;100628.34;5080255;27;65392;-32
2021/06/12 04:56:21;;;;;;;7.97;2.08;;;;;;;29.85;46.17;100580.53;5086936;27;69629;-33
2021/06/12 04:58:57;;;;;;;2.55;1.48;;;;;;;30.11;46.95;100606.53;5090398;27;66210;-33
2021/06/12 05:01:30;;;;;;;7.85;1.92;;;;;;;30.10;46.89;100610.28;5080376;27;70682;-33
2021/06/12 05:04:27;;;;;;;6.68;1.40;;;;;;;30.08;46.93;100623.19;4996045;28;65454;-33
2021/06/12 05:07:20;;;;;;;7.47;1.63;;;;;;;30.01;45.88;100617.03;5019775;28;69175;-33
2021/06/12 05:10:31;;;;;;;3.42;1.38;;;;;;;30.02;46.29;100613.28;5016446;28;66380;-33
2021/06/12 05:13:26;;;;;;;5.90;1.60;;;;;;;30.00;45.44;100621.59;5017903;28;70272;-32
2021/06/12 05:17:03;;;;;;;8.68;1.65;;;;;;;29.96;45.37;100620.38;5016927;28;65383;-33
2021/06/12 05:20:07;;;;;;;4.72;1.33;;;;;;;30.00;44.77;100615.34;5024771;28;70104;-34
2021/06/12 05:23:11;;;;;;;6.30;1.70;;;;;;;29.92;45.03;100607.50;5013714;28;66039;-33
2021/06/12 05:26:20;;;;;;;3.03;1.33;;;;;;;29.96;46.13;100592.53;5006158;28;70323;-34
2021/06/12 05:29:12;;;;;;;3.33;1.20;;;;;;;29.96;46.40;100597.94;5020566;28;66269;-32
2021/06/12 05:31:59;;;;;;;4.60;1.40;;;;;;;29.99;45.81;100608.31;5011259;28;70106;-32
2021/06/12 05:35:06;;;;;;;;;;;;;;;;;;;;;
2021/06/12 05:37:43;;;;;;;2.88;1.15;;;;;;;30.04;46.02;100576.84;5019543;28;69472;-33
2021/06/12 05:40:25;;;;;;;2.17;1.27;;;;;;;30.08;46.73;100577.22;5029784;27;66712;-35
2021/06/12 05:43:11;;;;;;;4.35;1.40;;;;;;;30.09;45.78;100568.06;5086858;27;70062;-34
2021/06/12 05:46:16;;;;;;;2.33;1.17;;;;;;;30.10;46.72;100567.00;5051728;27;65359;-33
2021/06/12 05:48:48;;;;;;;3.65;1.17;;;;;;;30.11;46.28;100565.94;5078313;27;69868;-33
2021/06/12 05:51:24;;;;;;;3.25;1.30;;;;;;;30.14;45.48;100551.16;5086162;27;66319;-34
2021/06/12 05:54:19;;;;;;;2.92;1.10;;;;;;;30.14;45.75;100543.84;5083483;27;70052;-34
2021/06/12 05:56:54;;;;;;;2.63;1.35;;;;;;;30.13;45.07;100544.91;5086986;27;65341;-34
2021/06/12 05:59:28;;;;;;;2.38;1.38;;;;;;;30.15;45.24;100544.72;5083546;27;43220;-36
2021/06/12 06:02:35;;;;;;;2.55;1.55;;;;;;;30.10;43.87;100539.97;5085264;27;65504;-32
2021/06/12 06:05:52;;;;;;;1.42;1.00;;;;;;;30.08;43.83;100536.63;5084623;27;69857;-33
2021/06/12 06:08:26;;;;;;;2.03;1.08;;;;;;;30.14;43.80;100541.16;5073401;27;66780;-34
2021/06/12 06:10:58;;;;;;;4.53;1.00;;;;;;;30.16;44.01;100555.28;5086234;27;70354;-32
2021/06/12 06:13:36;;;;;;;2.10;1.00;;;;;;;30.17;44.40;100540.72;5085525;27;66137;-34
2021/06/12 06:16:09;;;;;;;2.45;1.83;;;;;;;29.96;43.81;100495.16;5083076;27;69036;-33
2021/06/12 06:18:42;;;;;;;2.65;1.23;;;;;;;30.15;43.67;100537.41;5077300;27;65347;-34
2021/06/12 06:21:19;;;;;;;1.75;1.00;;;;;;;30.18;43.80;100539.66;5081555;27;70336;-33
2021/06/12 06:23:54;;;;;;;4.13;1.25;;;;;;;29.99;43.62;100484.72;5088932;27;65120;-33
2021/06/12 06:26:26;;;;;;;1.20;0.80;;;;;;;30.25;42.78;100545.03;5076487;27;69375;-33
2021/06/12 06:28:57;;;;;;;2.15;1.13;;;;;;;30.25;43.38;100543.16;5082636;27;64996;-33
2021/06/12 06:31:29;;;;;;;5.53;0.80;;;;;;;30.27;42.55;100546.47;5080287;27;69015;-34
2021/06/12 06:34:01;;;;;;;1.48;0.90;;;;;;;30.26;42.97;100544.81;5088210;27;66802;-34
2021/06/12 06:36:32;;;;;;;2.25;1.20;;;;;;;30.21;42.45;100539.22;5078275;27;69025;-33
2021/06/12 06:39:04;;;;;;;;;;;;;;;30.10;42.24;100555.38;5086449;27;66018;-33
2021/06/12 06:42:05;;;;;;;1.98;1.20;;;;;;;30.22;41.91;100526.53;5088402;27;69273;-33
2021/06/12 06:44:37;;;;;;;1.40;0.90;;;;;;;30.30;42.03;100534.38;5075782;27;66586;-33
2021/06/12 06:47:09;;;;;;;1.23;0.80;;;;;;;30.32;42.27;100536.88;5088725;27;70385;-32
2021/06/12 06:49:41;;;;;;;1.48;0.88;;;;;;;30.31;41.59;100536.00;5084157;27;66004;-33
2021/06/12 06:52:13;;;;;;;1.55;0.85;;;;;;;30.31;40.81;100530.59;5079795;27;69289;-33
2021/06/12 06:54:45;;;;;;;;;;;;;;;30.14;41.22;100524.91;5084057;27;65470;-32
2021/06/12 06:58:14;;;;;;;1.17;0.90;;;;;;;30.25;41.23;100523.38;5079059;27;70090;-32
2021/06/12 07:00:46;;;;;;;1.70;0.90;;;;;;;30.35;41.60;100523.69;5012104;28;66353;-34
2021/06/12 07:03:18;;;;;;;1.58;1.13;;;;;;;30.37;41.41;100534.28;5090338;27;69128;-33
2021/06/12 07:06:19;;;;;;;3.55;1.10;;;;;;;30.35;41.38;100514.75;5085577;27;65964;-34
2021/06/12 07:08:51;;;;;;;1.23;0.80;;;;;;;30.41;41.59;100525.50;5071268;27;70482;-33
2021/06/12 07:11:23;;;;;;;1.02;0.70;;;;;;;30.36;41.34;100511.81;5081305;27;66806;-33
2021/06/12 07:13:55;;;;;;;1.42;1.00;;;;;;;30.37;41.54;100513.50;5087383;27;69813;-34
2021/06/12 07:16:46;;;;;;;2.88;1.17;;;;;;;30.48;41.36;100517.31;5079328;27;66651;-34
2021/06/12 07:19:47;;;;;;;3.25;1.10;;;;;;;30.27;40.71;100497.75;5088435;27;70353;-34
2021/06/12 07:22:54;;;;;;;3.08;1.00;;;;;;;30.52;40.88;100513.09;5087857;27;65369;-34
2021/06/12 07:25:26;;;;;;;1.42;0.68;;;;;;;30.53;41.19;100506.63;5090664;27;69852;-34
2021/06/12 07:28:57;;;;;;;2.92;0.82;;;;;;;30.49;40.77;100514.38;5086253;27;66470;-33
2021/06/12 07:31:26;;;;;;;;;;;;;;;30.30;41.06;100511.91;5087361;27;69333;-34
2021/06/12 07:34:10;;;;;;;7.15;0.85;;;;;;;30.48;40.66;100514.63;5084745;27;66217;-34
2021/06/12 07:36:43;;;;;;;4.65;0.70;;;;;;;30.57;40.87;100507.84;5083350;27;70658;-34
2021/06/12 07:39:15;;;;;;;2.42;1.05;;;;;;;30.55;40.71;100504.53;5082298;27;66794;-35
2021/06/12 07:41:50;;;;;;;2.03;1.05;;;;;;;30.53;40.79;100503.09;5087760;27;70067;-35
2021/06/12 07:44:23;;;;;;;2.00;1.13;;;;;;;30.56;40.80;100500.75;5078691;27;66780;-34
2021/06/12 07:47:00;;;;;;;1.33;0.90;;;;;;;30.54;41.08;100508.28;5083727;27;70392;-34
2021/06/12 07:49:38;;;;;;;3.33;1.17;;;;;;;30.56;40.55;100498.03;5103173;27;66731;-33
2021/06/12 07:52:10;;;;;;;1.58;1.08;;;;;;;30.56;40.70;100498.03;5086373;27;69869;-33
2021/06/12 07:55:03;;;;;;;2.08;1.08;;;;;;;30.55;40.78;100509.94;5089664;27;66462;-33
2021/06/12 07:57:48;;;;;;;2.05;1.10;;;;;;;30.54;40.71;100505.59;5070903;27;70061;-33
2021/06/12 08:00:20;;;;;;;2.55;1.40;;;;;;;30.55;40.61;100509.94;5083794;27;65714;-32
2021/06/12 08:03:01;;;;;;;2.33;1.17;;;;;;;30.55;40.46;100507.22;5086007;27;69723;-33
2021/06/12 08:05:51;;;;;;;2.08;1.38;;;;;;;30.54;40.46;100500.16;5078116;27;65123;-34
2021/06/12 08:08:34;;;;;;;3.10;1.13;;;;;;;30.57;40.33;100502.41;5086810;27;71316;-34
2021/06/12 08:12:01;;;;;;;3.83;1.35;;;;;;;30.54;40.02;100500.16;5075005;27;65138;-33
2021/06/12 08:14:39;;;;;;;2.05;1.42;;;;;;;30.51;40.23;100492.50;5086509;27;70316;-33
2021/06/12 08:17:10;;;;;;;5.90;1.60;;;;;;;30.55;43.08;100496.41;5090863;27;65915;-33
2021/06/12 08:20:00;;;;;;;;;;;;;;;30.40;43.64;100490.56;5091328;27;69270;-34
2021/06/12 08:22:37;;;;;;;6.40;2.10;;;;;;;30.62;42.86;100486.31;5081979;27;66336;-33
2021/06/12 08:25:10;;;;;;;13.15;1.75;;;;;;;30.64;42.88;100486.91;5085921;27;70482;-33
2021/06/12 08:27:45;;;;;;;9.00;1.58;;;;;;;30.66;42.53;100484.81;5094267;27;66063;-34
2021/06/12 08:30:20;;;;;;;7.13;1.88;;;;;;;30.65;42.47;100496.69;5083721;27;69803;-32
2021/06/12 08:32:52;;;;;;;3.85;1.67;;;;;;;30.65;41.90;100490.47;5080833;27;66245;-33
2021/06/12 08:35:24;;;;;;;15.73;1.75;;;;;;;30.65;42.09;100488.56;5083477;27;69123;-33
2021/06/12 08:37:56;;;;;;;3.53;1.80;;;;;;;30.66;41.83;100492.94;5082282;27;66186;-33
2021/06/12 08:40:30;;;;;;;3.28;1.90;;;;;;;30.66;42.18;100495.63;5086042;27;69497;-33
2021/06/12 08:43:04;;;;;;;9.02;1.77;;;;;;;30.66;42.05;100498.34;5083687;27;65369;-32
2021/06/12 08:45:40;;;;;;;6.45;1.50;;;;;;;30.67;42.11;100491.88;5095974;27;69782;-34
2021/06/12 08:48:28;;;;;;;5.47;1.35;;;;;;;30.64;41.83;100500.44;5045391;28;65935;-31
2021/06/12 08:51:03;;;;;;;13.45;2.42;;;;;;;30.69;45.25;100500.59;5045411;28;69557;-33
2021/06/12 08:54:02;;;;;;;7.60;3.70;;;;;;;30.75;48.91;100498.03;5036315;28;65113;-32
2021/06/12 08:56:55;;;;;;;13.93;3.33;;;;;;;30.90;51.32;100495.78;5039571;28;69053;-32
2021/06/12 08:59:52;;;;;;;7.22;3.22;;;;;;;31.05;52.38;100488.03;5051356;28;66806;-33
2021/06/12 09:03:07;;;;;;;6.50;3.10;;;;;;;31.23;53.14;100487.16;5041479;28;70599;-32
2021/06/12 09:05:58;;;;;;;12.18;3.95;;;;;;;31.19;53.31;100448.03;5046225;28;65332;-33
2021/06/12 09:08:42;;;;;;;5.25;2.65;;;;;;;31.35;54.84;100443.81;5052028;28;69315;-33
2021/06/12 09:11:36;;;;;;;9.00;2.20;;;;;;;31.72;52.95;100476.97;5048470;28;66316;-33
2021/06/12 09:14:09;;;;;;;6.72;1.70;;;;;;;31.76;53.13;100467.34;5038870;28;70146;-32
2021/06/12 09:17:03;;;;;;;4.07;1.92;;;;;;;31.93;52.93;100482.91;5040181;28;66236;-32
2021/06/12 09:19:46;;;;;;;4.15;2.33;;;;;;;32.00;53.70;100467.34;5037060;28;70432;-34
2021/06/12 09:22:27;;;;;;;4.03;1.90;;;;;;;31.81;55.12;100445.72;5023573;28;66246;-34
2021/06/12 09:24:59;;;;;;;12.50;2.17;;;;;;;32.12;53.55;100476.28;5043345;27;69927;-32
2021/06/12 09:27:30;;;;;;;6.18;2.60;;;;;;;32.20;54.34;100489.47;5083429;27;65991;-33
2021/06/12 09:30:07;;;;;;;10.00;1.88;;;;;;;32.02;53.87;100440.81;5085231;27;69530;-33
2021/06/12 09:32:46;;;;;;;6.80;3.90;;;;;;;32.34;54.49;100473.75;5093691;27;66100;-33
2021/06/12 09:35:18;;;;;;;12.95;4.68;;;;;;;32.38;52.75;100480.38;5083886;27;69722;-33
2021/06/12 09:37:52;;;;;;;;;;;;;;;32.24;54.74;100478.97;5085388;27;66165;-33
2021/06/12 09:40:32;;;;;;;42.47;21.95;;;;;;;32.35;53.54;100459.13;5078984;27;69874;-35
2021/06/12 09:43:34;;;;;;;17.83;9.57;;;;;;;32.55;54.12;100474.22;5082372;27;65169;-34
2021/06/12 09:46:38;;;;;;;6.57;5.88;;;;;;;32.51;54.14;100478.47;5091638;27;69942;-34
2021/06/12 09:49:58;;;;;;;19.83;5.25;;;;;;;32.57;53.35;100483.75;5073481;27;65708;-34
2021/06/12 09:52:44;;;;;;;12.05;6.57;;;;;;;32.57;55.14;100472.06;5084399;27;70691;-34
2021/06/12 09:55:21;;;;;;;12.70;6.10;;;;;;;32.62;54.77;100474.88;5082879;27;66471;-34
2021/06/12 09:57:54;;;;;;;7.72;6.30;;;;;;;32.66;54.80;100470.63;5081017;27;71054;-32
2021/06/12 10:00:47;;;;;;;20.25;6.70;;;;;;;32.67;55.39;100472.25;5086315;27;65093;-31
2021/06/12 10:03:32;;;;;;;14.35;6.35;;;;;;;32.46;56.16;100436.56;5080438;27;69075;-34
2021/06/12 10:06:17;;;;;;;17.85;7.20;;;;;;;32.59;56.35;100453.63;5088387;27;65236;-34
2021/06/12 10:08:50;;;;;;;8.13;5.53;;;;;;;32.68;54.90;100473.91;5078798;27;70273;-33
2021/06/12 10:11:27;;;;;;;20.58;6.82;;;;;;;32.26;55.73;100398.13;5082900;27;65360;-35
2021/06/12 10:13:59;;;;;;;7.88;5.18;;;;;;;32.69;54.71;100470.13;5078708;27;69862;-36
2021/06/12 10:16:33;;;;;;;17.02;6.18;;;;;;;32.65;55.62;100468.97;5085111;27;65254;-35
2021/06/12 10:19:06;;;;;;;7.15;5.63;;;;;;;32.62;55.97;100448.53;5089587;27;69976;-33
2021/06/12 10:21:37;;;;;;;11.88;5.32;;;;;;;32.69;53.66;100475.56;5076535;27;65542;-33
2021/06/12 10:24:09;;;;;;;16.83;6.35;;;;;;;32.70;53.69;100477.22;5082729;27;69881;-34
2021/06/12 10:26:42;;;;;;;11.93;6.15;;;;;;;32.66;53.54;100482.31;5080505;27;65982;-34
2021/06/12 10:29:30;;;;;;;17.65;5.93;;;;;;;32.64;54.78;100483.63;5081546;27;68945;-37
2021/06/12 10:32:20;;;;;;;10.77;5.40;;;;;;;32.68;53.94;100487.47;5077824;27;65995;-32
2021/06/12 10:35:07;;;;;;;8.38;6.22;;;;;;;32.69;54.35;100491.88;5086720;27;69287;-36
2021/06/12 10:38:16;;;;;;;11.23;6.38;;;;;;;32.71;52.23;100489.75;5091519;27;66356;-32
2021/06/12 10:40:52;;;;;;;14.95;6.53;;;;;;;32.53;52.89;100460.03;5057871;27;70125;-32
2021/06/12 10:43:54;;;;;;;12.45;8.00;;;;;;;32.62;53.72;100486.56;5084685;27;64967;-34
2021/06/12 10:46:45;;;;;;;15.45;6.90;;;;;;;32.62;53.75;100472.16;5093475;27;70571;-34
2021/06/12 10:50:15;;;;;;;10.40;5.93;;;;;;;32.56;51.09;100471.22;5092828;27;65140;-33
2021/06/12 10:52:47;;;;;;;8.15;5.43;;;;;;;32.61;52.21;100481.38;5064169;27;69726;-32
2021/06/12 10:55:55;;;;;;;8.55;6.53;;;;;;;32.55;53.98;100475.03;5088455;27;65034;-33
2021/06/12 10:58:41;;;;;;;8.70;5.15;;;;;;;32.56;53.02;100484.81;5085819;27;69988;-33
2021/06/12 11:01:18;;;;;;;13.40;5.93;;;;;;;32.60;52.86;100487.91;5099436;27;65995;-33
2021/06/12 11:04:15;;;;;;;4.75;4.20;;;;;;;32.52;51.49;100482.84;5087118;27;69554;-33
2021/06/12 11:09:37;;;;;;;4.93;4.50;;;;;;;32.26;52.60;100472.25;5086350;27;69358;-34
2021/06/12 11:12:14;;;;;;;6.38;4.47;;;;;;;32.35;52.52;100480.84;5082475;27;66249;-32
2021/06/12 11:15:04;;;;;;;4.90;4.25;;;;;;;32.25;53.19;100481.44;5084907;27;69388;-32
2021/06/12 11:17:37;;;;;;;6.57;4.78;;;;;;;32.29;53.05;100481.81;5085527;27;66056;-34
2021/06/12 11:20:11;;;;;;;12.65;4.75;;;;;;;32.26;52.65;100488.53;5087106;27;69944;-33
2021/06/12 11:22:54;;;;;;;5.32;4.82;;;;;;;31.95;52.62;100454.47;5092866;27;66517;-32
2021/06/12 11:25:28;;;;;;;8.38;4.72;;;;;;;32.18;52.50;100501.63;5082715;27;69099;-33
2021/06/12 11:28:21;;;;;;;6.35;4.75;;;;;;;31.91;53.72;100471.44;5083834;27;65500;-33
2021/06/12 11:31:14;;;;;;;5.90;5.40;;;;;;;31.94;53.55;100473.72;5092016;27;69037;-33
2021/06/12 11:34:04;;;;;;;;;;;;;;;31.90;53.74;100516.75;5090661;27;65981;-33
2021/06/12 11:36:37;;;;;;;19.98;6.00;;;;;;;32.07;52.93;100516.03;5086558;27;69368;-33
2021/06/12 11:39:09;;;;;;;;;;;;;;;31.85;53.48;100524.75;5088727;27;65904;-32
2021/06/12 11:41:43;;;;;;;7.90;6.38;;;;;;;31.97;54.23;100509.31;5090184;27;71169;-32
2021/06/12 11:44:17;;;;;;;7.32;5.78;;;;;;;32.05;54.80;100530.66;5088604;27;66779;-33
2021/06/12 11:46:49;;;;;;;15.02;5.45;;;;;;;32.04;54.86;100542.59;5080828;27;68652;-31
2021/06/12 11:49:21;;;;;;;9.18;5.10;;;;;;;31.96;53.10;100525.84;5080562;27;66111;-32
2021/06/12 11:51:52;;;;;;;10.53;5.07;;;;;;;31.85;51.70;100519.34;5086853;27;70096;-31
2021/06/12 11:54:31;;;;;;;5.15;4.65;;;;;;;31.76;51.24;100520.72;5090152;27;65823;-32
2021/06/12 11:57:06;;;;;;;6.28;5.60;;;;;;;31.65;50.51;100519.69;5086853;27;68759;-32
2021/06/12 11:59:38;;;;;;;5.78;5.25;;;;;;;31.53;50.17;100519.63;5085258;27;65970;-32
2021/06/12 12:02:10;;;;;;;7.55;5.63;;;;;;;31.49;50.00;100526.59;5086955;27;70038;-32
2021/06/12 12:04:51;;;;;;;6.10;5.60;;;;;;;31.19;49.06;100504.13;5088319;27;66372;-32
2021/06/12 12:07:23;;;;;;;8.07;5.15;;;;;;;31.24;48.31;100531.34;5084206;27;69390;-32
2021/06/12 12:09:57;;;;;;;9.18;5.55;;;;;;;31.24;48.55;100539.47;5082991;27;66139;-31
2021/06/12 12:12:35;;;;;;;8.27;5.90;;;;;;;31.14;47.38;100538.13;5081312;27;69076;-31
2021/06/12 12:15:07;;;;;;;26.05;7.45;;;;;;;31.12;47.59;100545.69;5081377;27;66339;-33
2021/06/12 12:17:39;;;;;;;14.73;7.85;;;;;;;31.07;47.41;100539.31;5087595;27;69368;-32
2021/06/12 12:20:12;;;;;;;17.80;7.38;;;;;;;30.99;47.78;100555.88;5080085;27;66555;-34
2021/06/12 12:26:14;;;;;;;18.80;7.25;;;;;;;30.84;45.82;100578.78;5043221;27;65901;-33
2021/06/12 12:29:01;;;;;;;11.52;7.13;;;;;;;30.79;45.53;100583.19;5088717;27;70060;-34
2021/06/12 12:31:44;;;;;;;10.55;8.07;;;;;;;30.50;46.21;100555.78;5082061;27;66182;-33
2021/06/12 12:34:32;;;;;;;11.13;8.32;;;;;;;30.67;45.18;100610.16;5084021;27;70007;-32
2021/06/12 12:37:17;;;;;;;12.60;8.48;;;;;;;30.67;45.69;100621.00;5086304;27;66245;-33
2021/06/12 12:39:52;;;;;;;18.08;8.85;;;;;;;30.59;46.04;100624.00;5084391;27;70158;-33
2021/06/12 12:42:26;;;;;;;26.67;10.38;;;;;;;30.38;47.04;100600.91;5087844;27;66160;-33
2021/06/12 12:44:58;;;;;;;38.00;12.18;;;;;;;30.68;48.27;100647.84;5081536;27;69956;-36